»·PEaware :: SWA3410 KLAS-KSJC

SWA3410 :: KLAS-KSJC

FLIGHT INFORMATION

Flight Status: Arrived
Operator:
Southwest Airlines
More flights by this operator :: More flights under this callsign
Pilot: Cody B. (17747)
Aircraft: BOEING 737-800
(B738)
More flights by this aircraft type
Origin: KLAS McCarran Intl
United States
Destination: KSJC Mineta San Jose Intl
United States
More flights between these airports :: More routes between these airports
Route: SHEAD1 KENNO RUSME RAZRR4
File this flight plan on PilotEdge
Remarks: PBN / A1B1C1D1S1S2 DOF / 181006 REG / N8301J EET / KZOA0028 CODE / AB5ADE OPR / SWA PER / C RMK / TCAS SIMBRIEF
Altitude:
(Current/Filed)
30,000ft
Speed:
(Current/Filed)
453kts
Departed: 06-Oct-18 12:09 PM
Arrived: 06-Oct-18 01:19 PM
Distance/Time
Traveled:
335nm/1:10
Distance/Time
To Go:
Arrived

Flight Plot

Page will automatically refresh every two minutes.

Flight plan parsing failed; only flown route is shown


Map Options




Map Legend


Flown Route
Filed Route
Departure Airport
Arrival Airport
Navaid (VOR, NDB)
Fix

Horizontal Profiles

Position Reports

Time Latitude Longitude Heading Altitude Ground
Speed
06-Oct-18 11:07 36.082783 -115.150365 261 2189ft 0kts
06-Oct-18 11:08 36.082783 -115.150365 261 2189ft 0kts
06-Oct-18 11:09 36.082783 -115.150365 261 2189ft 0kts
06-Oct-18 11:10 36.082783 -115.150365 261 2189ft 0kts
06-Oct-18 11:11 36.082783 -115.150365 261 2189ft 0kts
06-Oct-18 11:12 36.082783 -115.150365 261 2189ft 0kts
06-Oct-18 11:13 36.082783 -115.150365 261 2189ft 0kts
06-Oct-18 11:14 36.082783 -115.150365 261 2189ft 0kts
06-Oct-18 11:15 36.082783 -115.150365 261 2189ft 0kts
06-Oct-18 11:16 36.082783 -115.150365 261 2189ft 0kts
06-Oct-18 11:17 36.082783 -115.150365 261 2189ft 0kts
06-Oct-18 11:18 36.082783 -115.150365 261 2189ft 0kts
06-Oct-18 11:19 36.082783 -115.150365 261 2189ft 0kts
06-Oct-18 11:20 36.082783 -115.150365 261 2189ft 0kts
06-Oct-18 11:21 36.082783 -115.150365 261 2189ft 0kts
06-Oct-18 11:22 36.082783 -115.150365 261 2189ft 0kts
06-Oct-18 11:23 36.082783 -115.150365 261 2189ft 0kts
06-Oct-18 11:24 36.082783 -115.150365 261 2189ft 0kts
06-Oct-18 11:25 36.082783 -115.150365 261 2189ft 0kts
06-Oct-18 11:26 36.082783 -115.150365 261 2189ft 0kts
06-Oct-18 11:27 36.082783 -115.150365 261 2189ft 0kts
06-Oct-18 11:28 36.082783 -115.150365 261 2189ft 0kts
06-Oct-18 11:29 36.082783 -115.150365 261 2189ft 0kts
06-Oct-18 11:30 36.082783 -115.150365 261 2189ft 0kts
06-Oct-18 11:31 36.082783 -115.150365 261 2189ft 0kts
06-Oct-18 11:32 36.082783 -115.150365 261 2189ft 0kts
06-Oct-18 11:33 36.082783 -115.150365 261 2189ft 0kts
06-Oct-18 11:34 36.082783 -115.150365 261 2189ft 0kts
06-Oct-18 11:35 36.082783 -115.150365 261 2189ft 0kts
06-Oct-18 11:36 36.082783 -115.150365 261 2189ft 0kts
06-Oct-18 11:37 36.082783 -115.150365 261 2189ft 0kts
06-Oct-18 11:38 36.082783 -115.150365 261 2189ft 0kts
06-Oct-18 11:39 36.082783 -115.150365 261 2189ft 0kts
06-Oct-18 11:40 36.082783 -115.150365 261 2189ft 0kts
06-Oct-18 11:41 36.082783 -115.150365 261 2189ft 0kts
06-Oct-18 11:42 36.082783 -115.150365 261 2189ft 0kts
06-Oct-18 11:43 36.082783 -115.150365 261 2189ft 0kts
06-Oct-18 11:44 36.082783 -115.150365 261 2189ft 0kts
06-Oct-18 11:45 36.082783 -115.150365 261 2189ft 0kts
06-Oct-18 11:46 36.082735 -115.149983 278 2189ft 2kts
06-Oct-18 11:47 36.082863 -115.149693 147 2189ft 0kts
06-Oct-18 11:48 36.082906 -115.149737 140 2189ft 0kts
06-Oct-18 11:49 36.082906 -115.149737 140 2189ft 0kts
06-Oct-18 11:50 36.082906 -115.149737 140 2189ft 0kts
06-Oct-18 11:51 36.082906 -115.149737 140 2189ft 0kts
06-Oct-18 11:52 36.082906 -115.149737 140 2189ft 0kts
06-Oct-18 11:53 36.082906 -115.149737 140 2189ft 0kts
06-Oct-18 11:54 36.082906 -115.149737 140 2189ft 0kts
06-Oct-18 11:55 36.082906 -115.149737 140 2189ft 0kts
06-Oct-18 11:56 36.082906 -115.149737 140 2189ft 0kts
06-Oct-18 11:57 36.082906 -115.149737 140 2189ft 0kts
06-Oct-18 11:58 36.080873 -115.148396 156 2189ft 18kts
06-Oct-18 11:59 36.079061 -115.147367 156 2189ft 0kts
06-Oct-18 12:00 36.079061 -115.147367 156 2189ft 0kts
06-Oct-18 12:01 36.078559 -115.146893 115 2189ft 4kts
06-Oct-18 12:02 36.078301 -115.143802 92 2189ft 11kts
06-Oct-18 12:03 36.078278 -115.139012 89 2189ft 16kts
06-Oct-18 12:04 36.078275 -115.132671 89 2189ft 20kts
06-Oct-18 12:05 36.078286 -115.125254 90 2189ft 21kts
06-Oct-18 12:06 36.077396 -115.121409 143 2189ft 0kts
06-Oct-18 12:07 36.077396 -115.121409 143 2189ft 0kts
06-Oct-18 12:08 36.077396 -115.121409 143 2189ft 0kts
06-Oct-18 12:09 36.077310 -115.121354 156 2189ft 3kts
06-Oct-18 12:10 36.076445 -115.125227 269 2189ft 33kts
06-Oct-18 12:11 36.076175 -115.170966 272 3455ft 176kts
06-Oct-18 12:12 36.071708 -115.238949 245 5461ft 249kts
06-Oct-18 12:13 36.010199 -115.287409 191 7038ft 287kts
06-Oct-18 12:14 35.941080 -115.335824 226 9000ft 302kts
06-Oct-18 12:15 35.892124 -115.415603 255 10706ft 300kts
06-Oct-18 12:16 35.888033 -115.517186 273 14252ft 304kts
06-Oct-18 12:17 35.890144 -115.629012 274 16806ft 336kts
06-Oct-18 12:18 35.892025 -115.736943 273 18628ft 341kts
06-Oct-18 12:19 35.893910 -115.853451 274 20362ft 344kts
06-Oct-18 12:20 35.909216 -115.968224 298 21903ft 342kts
06-Oct-18 12:21 35.970474 -116.056675 315 23231ft 346kts
06-Oct-18 12:22 36.040270 -116.137116 315 24416ft 350kts
06-Oct-18 12:23 36.110451 -116.218188 315 25451ft 354kts
06-Oct-18 12:24 36.181258 -116.300097 315 26420ft 357kts
06-Oct-18 12:25 36.253890 -116.384334 314 27280ft 361kts
06-Oct-18 12:26 36.327135 -116.469516 314 28059ft 364kts
06-Oct-18 12:27 36.400789 -116.555413 314 28760ft 367kts
06-Oct-18 12:28 36.475054 -116.642245 313 29499ft 366kts
06-Oct-18 12:29 36.547178 -116.726882 313 29896ft 363kts
06-Oct-18 12:30 36.630677 -116.799054 324 29923ft 372kts
06-Oct-18 12:31 36.719005 -116.865806 323 29929ft 376kts
06-Oct-18 12:32 36.807914 -116.933511 324 29915ft 378kts
06-Oct-18 12:33 36.897233 -117.001701 324 29945ft 378kts
06-Oct-18 12:34 36.986514 -117.070083 325 29984ft 376kts
06-Oct-18 12:35 37.075731 -117.138628 326 29993ft 386kts
06-Oct-18 12:36 37.169136 -117.210582 326 29992ft 405kts
06-Oct-18 12:37 37.264110 -117.283886 326 29989ft 399kts
06-Oct-18 12:38 37.351615 -117.366936 318 29989ft 394kts
06-Oct-18 12:39 37.434589 -117.455881 318 29964ft 391kts
06-Oct-18 12:40 37.485068 -117.572978 282 29950ft 394kts
06-Oct-18 12:41 37.479528 -117.708666 268 29938ft 399kts
06-Oct-18 12:42 37.468567 -117.846017 268 29943ft 405kts
06-Oct-18 12:43 37.456810 -117.992153 268 29925ft 425kts
06-Oct-18 12:44 37.444812 -118.138332 268 29924ft 417kts
06-Oct-18 12:45 37.432670 -118.284231 268 29932ft 420kts
06-Oct-18 12:46 37.420342 -118.430599 268 29925ft 426kts
06-Oct-18 12:47 37.407631 -118.578595 268 29924ft 427kts
06-Oct-18 12:48 37.395443 -118.718373 268 29986ft 427kts
06-Oct-18 12:49 37.379118 -118.863851 265 30028ft 428kts
06-Oct-18 12:50 37.359032 -119.010377 269 30029ft 429kts
06-Oct-18 12:51 37.338896 -119.157623 269 30028ft 429kts
06-Oct-18 12:52 37.318599 -119.305025 269 30025ft 429kts
06-Oct-18 12:53 37.298748 -119.446153 270 29260ft 387kts
06-Oct-18 12:54 37.280487 -119.577404 269 28423ft 393kts
06-Oct-18 12:55 37.263069 -119.700018 269 27479ft 379kts
06-Oct-18 12:56 37.244385 -119.830742 268 26492ft 365kts
06-Oct-18 12:57 37.226072 -119.959361 269 25543ft 371kts
06-Oct-18 12:58 37.213046 -120.085645 270 24735ft 376kts
06-Oct-18 12:59 37.199282 -120.214706 270 22897ft 369kts
06-Oct-18 13:00 37.185679 -120.340838 269 20905ft 361kts
06-Oct-18 13:01 37.172266 -120.463319 268 19962ft 356kts
06-Oct-18 13:02 37.158657 -120.586256 268 19056ft 354kts
06-Oct-18 13:03 37.145767 -120.700600 267 17650ft 348kts
06-Oct-18 13:04 37.132750 -120.816609 266 16211ft 343kts
06-Oct-18 13:05 37.119824 -120.932835 265 14110ft 325kts
06-Oct-18 13:06 37.107685 -121.041123 265 11711ft 305kts
06-Oct-18 13:07 37.099582 -121.146650 280 10729ft 288kts
06-Oct-18 13:08 37.110864 -121.240107 282 9936ft 266kts
06-Oct-18 13:09 37.121452 -121.331038 282 8834ft 264kts
06-Oct-18 13:10 37.131965 -121.421877 281 7995ft 268kts
06-Oct-18 13:11 37.138666 -121.514123 273 6073ft 242kts
06-Oct-18 13:12 37.139650 -121.592626 278 4673ft 215kts
06-Oct-18 13:13 37.152949 -121.659309 284 4058ft 197kts
06-Oct-18 13:14 37.175881 -121.720906 315 2756ft 205kts
06-Oct-18 13:15 37.216114 -121.762844 311 1878ft 161kts
06-Oct-18 13:16 37.244801 -121.801348 312 1551ft 146kts
06-Oct-18 13:17 37.272827 -121.833044 329 1178ft 140kts
06-Oct-18 13:18 37.302696 -121.862508 315 1109ft 148kts
06-Oct-18 13:19 37.330874 -121.896028 322 635ft 141kts
06-Oct-18 13:20 37.356928 -121.923534 318 111ft 136kts
06-Oct-18 13:21 37.365097 -121.931447 22 70ft 13kts
06-Oct-18 13:22 37.365381 -121.931201 47 70ft 0kts
06-Oct-18 13:23 37.365418 -121.931149 47 70ft 4kts
06-Oct-18 13:24 37.366600 -121.929471 48 70ft 6kts
06-Oct-18 13:25 37.366074 -121.927779 139 70ft 3kts
06-Oct-18 13:26 37.364613 -121.926178 139 70ft 5kts
06-Oct-18 13:27 37.364267 -121.925525 54 70ft 2kts
06-Oct-18 13:28 37.364621 -121.925007 47 70ft 0kts
06-Oct-18 13:29 37.364621 -121.925008 47 70ft 0kts
06-Oct-18 13:30 37.364621 -121.925008 47 70ft 0kts
06-Oct-18 13:31 37.364621 -121.925008 47 70ft 0kts
06-Oct-18 13:32 37.364621 -121.925008 47 70ft 0kts
06-Oct-18 13:33 37.364621 -121.925008 47 70ft 0kts
06-Oct-18 13:34 37.364621 -121.925008 47 70ft 0kts
06-Oct-18 13:35 37.364621 -121.925008 47 70ft 0kts

Navigation Log

Ident Type
Flight plan parsing failed, navigation log unavailable